Tera North, Indiana
Current Conditions -  °F | °C
As of 8:53 AM on Tuesday 21 Oct 2014 (Local Time) from KHUF Reporting Station
Overcast Overcast  
Wind Chill: 50°   Ceiling: 5000
Heat Index: 50°   Visibility: 7mi
Dew Point: 47°   Wind: 5mph
Humidity: 89%   Direction: 330°NNW
Pressure: 30.08"   Gusts: NA
Location:  39.543°N, 87.3153°W
Report Text: KHUF 211253Z 33004KT 7SM OVC050 10/08 A3008 RMK AO2 SLP185 T01000083
Loading
Personal Weather Stations






























Interactive Weather Map
Tropical Storm Tracking
New forecast layout! Learn more

10-Day Weather Forecast

Advertisements
Track Severe Weather on mobile